createdAt,value
2024-05-09T00:03:46.715Z,100891.93
2024-05-09T00:12:09.707Z,100889.76
2024-05-09T00:20:37.797Z,100885.84
2024-05-09T00:29:03.212Z,100885.16
2024-05-09T00:37:25.851Z,100885.79
2024-05-09T00:45:48.494Z,100889.14
2024-05-09T00:54:11.082Z,100888.78
2024-05-09T01:02:33.716Z,100886.01
2024-05-09T01:10:56.345Z,100881.20
2024-05-09T01:19:30.125Z,100893.19
2024-05-09T01:27:52.799Z,100890.20
2024-05-09T01:36:15.400Z,100897.79
2024-05-09T01:44:38.035Z,100904.68
2024-05-09T01:53:00.822Z,100911.52
2024-05-09T02:01:23.484Z,100911.27
2024-05-09T02:09:46.136Z,100906.71
2024-05-09T02:18:09.911Z,100906.95
2024-05-09T02:26:32.932Z,100910.86
2024-05-09T02:34:55.623Z,100911.27
2024-05-09T02:43:18.206Z,100914.33
2024-05-09T02:51:40.833Z,100921.78
2024-05-09T03:00:05.976Z,100923.27
2024-05-09T03:08:28.971Z,100931.27
2024-05-09T03:16:51.716Z,100932.62
2024-05-09T03:25:14.275Z,100921.92
2024-05-09T03:33:38.043Z,100913.47
2024-05-09T03:42:00.775Z,100911.51
2024-05-09T03:50:30.085Z,100917.39
2024-05-09T03:58:57.508Z,100920.06
2024-05-09T04:07:20.192Z,100921.30
2024-05-09T04:15:42.764Z,100922.04
2024-05-09T04:24:05.531Z,100922.50
2024-05-09T04:32:28.451Z,100933.95
2024-05-09T04:40:51.188Z,100931.19
2024-05-09T04:49:14.333Z,100932.23
2024-05-09T04:57:37.136Z,100936.48
2024-05-09T05:06:00.003Z,100935.38
2024-05-09T05:14:22.982Z,100932.99
2024-05-09T05:22:45.834Z,100928.30
2024-05-09T05:31:08.535Z,100928.91
2024-05-09T05:39:31.226Z,100937.53
2024-05-09T05:47:55.085Z,100934.77
2024-05-09T05:56:17.989Z,100930.52
2024-05-09T06:04:40.960Z,100934.98
2024-05-09T06:13:03.730Z,100934.35
2024-05-09T06:21:26.709Z,100929.86
2024-05-09T06:29:49.561Z,100928.16
2024-05-09T06:38:12.596Z,100925.04
2024-05-09T06:46:37.120Z,100917.32
2024-05-09T06:55:00.328Z,100917.45
2024-05-09T07:03:23.548Z,100912.86
2024-05-09T07:11:46.589Z,100919.07
2024-05-09T07:20:16.202Z,100911.73
2024-05-09T07:28:42.608Z,100913.34
2024-05-09T07:37:10.868Z,100910.69
2024-05-09T07:54:01.322Z,100909.30
2024-05-09T08:02:24.607Z,100906.84
2024-05-09T08:10:47.372Z,100904.23
2024-05-09T08:19:10.128Z,100899.89
2024-05-09T08:27:32.770Z,100899.75
2024-05-09T08:35:55.380Z,100891.67
2024-05-09T08:44:18.676Z,100888.77
2024-05-09T08:52:41.307Z,100884.86
2024-05-09T09:01:04.424Z,100883.59
2024-05-09T09:09:27.838Z,100878.70
2024-05-09T09:17:57.520Z,100876.23
2024-05-09T09:26:20.215Z,100876.52
2024-05-09T09:34:42.834Z,100879.45
2024-05-09T09:43:14.134Z,100870.57
2024-05-09T09:51:43.237Z,100863.67
2024-05-09T10:00:11.637Z,100859.23
2024-05-09T10:08:36.022Z,100851.11
2024-05-09T10:17:05.208Z,100851.77
2024-05-09T10:25:27.905Z,100859.30
2024-05-09T10:33:52.610Z,100851.81
2024-05-09T10:42:16.484Z,100843.78
2024-05-09T10:50:43.718Z,100833.58
2024-05-09T10:59:06.380Z,100836.56
2024-05-09T11:07:29.701Z,100829.08
2024-05-09T11:15:53.440Z,100807.86
2024-05-09T11:24:16.776Z,100796.23
2024-05-09T11:32:39.495Z,100785.23
2024-05-09T11:41:03.181Z,100781.80
2024-05-09T11:49:27.011Z,100778.21
2024-05-09T11:57:49.798Z,100775.81
2024-05-09T12:06:12.410Z,100771.77
2024-05-09T12:14:35.198Z,100771.71
2024-05-09T12:22:57.727Z,100765.47
2024-05-09T12:31:20.444Z,100755.39
2024-05-09T12:39:45.336Z,100741.02
2024-05-09T12:48:12.323Z,100734.20
2024-05-09T12:56:35.766Z,100728.15
2024-05-09T13:04:58.564Z,100720.90
2024-05-09T13:13:21.250Z,100709.76
2024-05-09T13:21:43.993Z,100703.23
2024-05-09T13:30:14.482Z,100691.96
2024-05-09T13:38:40.404Z,100687.52
2024-05-09T13:47:05.378Z,100682.35
2024-05-09T13:55:28.383Z,100683.88
2024-05-09T14:03:51.042Z,100675.48
2024-05-09T14:12:13.707Z,100666.96
2024-05-09T14:20:39.126Z,100661.14
2024-05-09T14:29:02.614Z,100645.71
2024-05-09T14:37:25.152Z,100634.22
2024-05-09T14:45:47.788Z,100625.43
2024-05-09T14:54:10.520Z,100615.08
2024-05-09T15:02:34.628Z,100612.64
2024-05-09T15:10:57.528Z,100608.61
2024-05-09T15:19:20.773Z,100599.30
2024-05-09T15:27:45.021Z,100591.87
2024-05-09T15:36:08.577Z,100584.03
2024-05-09T15:44:31.142Z,100581.79
2024-05-09T15:52:53.667Z,100578.80
2024-05-09T16:01:16.347Z,100572.20
2024-05-09T16:09:39.097Z,100566.81
2024-05-09T16:18:02.019Z,100558.01
2024-05-09T16:26:25.661Z,100563.50
2024-05-09T16:34:51.072Z,100559.09
2024-05-09T16:43:13.973Z,100554.10
2024-05-09T16:51:36.997Z,100545.04
2024-05-09T16:59:59.969Z,100545.16
2024-05-09T17:08:22.803Z,100553.56
2024-05-09T17:16:45.567Z,100555.00
2024-05-09T17:25:08.635Z,100547.96
2024-05-09T17:33:31.518Z,100544.98
2024-05-09T17:41:54.182Z,100546.20
2024-05-09T17:50:23.888Z,100548.95
2024-05-09T17:58:50.527Z,100552.48
2024-05-09T18:07:13.610Z,100563.41
2024-05-09T18:15:37.260Z,100569.73
2024-05-09T18:24:00.519Z,100584.92
2024-05-09T18:32:23.510Z,100596.71
2024-05-09T18:40:48.877Z,100597.29
2024-05-09T18:49:12.549Z,100606.50
2024-05-09T18:57:37.122Z,100616.91
2024-05-09T19:05:59.963Z,100617.42
2024-05-09T19:14:24.414Z,100632.14
2024-05-09T19:22:46.920Z,100631.42
2024-05-09T19:31:09.595Z,100634.62
2024-05-09T19:39:32.527Z,100639.42
2024-05-09T19:47:55.890Z,100630.19
2024-05-09T19:56:18.500Z,100631.38
2024-05-09T20:04:44.757Z,100634.04
2024-05-09T20:13:08.193Z,100629.53
2024-05-09T20:21:31.377Z,100631.13
2024-05-09T20:29:53.935Z,100631.24
2024-05-09T20:38:16.483Z,100633.66
2024-05-09T20:46:38.956Z,100630.66
2024-05-09T20:55:01.551Z,100628.27
2024-05-09T21:03:24.950Z,100619.46
2024-05-09T21:11:47.707Z,100621.70
2024-05-09T21:20:17.033Z,100636.41
2024-05-09T21:28:43.001Z,100635.98
2024-05-09T21:37:05.596Z,100631.09
2024-05-09T21:45:28.264Z,100630.09
2024-05-09T21:53:50.882Z,100631.08
2024-05-09T22:02:13.724Z,100632.81
2024-05-09T22:10:37.161Z,100628.45
2024-05-09T22:19:00.174Z,100629.56
2024-05-09T22:27:22.927Z,100622.81
2024-05-09T22:35:45.671Z,100622.10
2024-05-09T22:44:08.314Z,100618.32
2024-05-09T22:52:30.890Z,100614.58
2024-05-09T23:00:53.649Z,100614.15
2024-05-09T23:09:16.271Z,100613.39
2024-05-09T23:17:39.036Z,100613.13
2024-05-09T23:26:02.175Z,100612.33
2024-05-09T23:34:25.123Z,100602.95
2024-05-09T23:42:48.037Z,100597.10
2024-05-09T23:51:11.346Z,100599.38
2024-05-09T23:59:34.255Z,100594.16
